Time;durP1;ratioP1;P1;durP2;ratioP2;P2;SDS_P1;SDS_P2;PMS_P1;PMS_P2;Temp;Humidity;BMP_temperature;BMP_pressure;BME280_temperature;BME280_humidity;BME280_pressure;Samples;Min_cycle;Max_cycle;Signal;HPM_P1;HPM_P2
2022/09/23 00:01:06;;;;;;;14.60;9.52;;;11.70;99.90;;;;;;5031258;28;20471;-71
2022/09/23 00:03:33;;;;;;;14.18;9.60;;;11.10;99.90;;;;;;5030311;28;20037;-72
2022/09/23 00:06:12;;;;;;;13.85;9.70;;;11.10;99.90;;;;;;5013132;28;20037;-72
2022/09/23 00:08:39;;;;;;;14.32;9.65;;;11.00;99.90;;;;;;5028014;28;20123;-72
2022/09/23 00:11:13;;;;;;;15.57;9.70;;;11.10;99.90;;;;;;5019134;28;20037;-72
2022/09/23 00:13:41;;;;;;;14.93;10.15;;;11.00;99.90;;;;;;5011755;28;20395;-73
2022/09/23 00:16:10;;;;;;;15.02;9.95;;;11.00;99.90;;;;;;5029302;28;20056;-72
2022/09/23 00:18:36;;;;;;;16.35;10.25;;;11.00;99.90;;;;;;5029396;28;20081;-72
2022/09/23 00:21:08;;;;;;;16.30;9.77;;;11.00;99.90;;;;;;5027469;28;20124;-73
2022/09/23 00:23:33;;;;;;;14.57;9.88;;;11.00;99.90;;;;;;5012169;28;20045;-71
2022/09/23 00:26:01;;;;;;;14.65;10.20;;;10.90;99.90;;;;;;5029135;28;20041;-73
2022/09/23 00:28:27;;;;;;;14.60;9.57;;;10.90;99.90;;;;;;5029381;28;20535;-73
2022/09/23 00:30:53;;;;;;;15.30;9.80;;;10.90;99.90;;;;;;5019456;28;20144;-73
2022/09/23 00:33:19;;;;;;;15.00;9.57;;;;;;;;;;5029601;28;20121;-73
2022/09/23 00:35:46;;;;;;;16.90;9.60;;;10.90;99.90;;;;;;5012103;28;20034;-73
2022/09/23 00:38:13;;;;;;;16.08;9.48;;;10.90;99.90;;;;;;5030310;28;20056;-73
2022/09/23 00:40:50;;;;;;;14.82;9.57;;;10.90;99.90;;;;;;5008150;28;20513;-72
2022/09/23 00:43:16;;;;;;;15.25;9.85;;;10.90;99.90;;;;;;5009406;28;20499;-72
2022/09/23 00:45:47;;;;;;;14.93;9.90;;;10.90;99.90;;;;;;5020849;28;20057;-73
2022/09/23 00:48:19;;;;;;;15.05;9.60;;;10.80;99.90;;;;;;5029502;28;20041;-73
2022/09/23 00:50:50;;;;;;;15.30;10.03;;;10.80;99.90;;;;;;5027446;28;20381;-72
2022/09/23 00:53:20;;;;;;;14.15;9.35;;;10.80;99.90;;;;;;5025689;28;20428;-72
2022/09/23 00:55:53;;;;;;;13.57;9.40;;;10.80;99.90;;;;;;5022593;28;20030;-72
2022/09/23 00:58:25;;;;;;;14.57;9.60;;;10.80;99.90;;;;;;5026439;28;20064;-72
2022/09/23 01:00:52;;;;;;;14.90;9.25;;;10.80;99.90;;;;;;5028632;28;20049;-72
2022/09/23 01:03:18;;;;;;;15.40;9.60;;;10.70;99.90;;;;;;5016871;28;20124;-71
2022/09/23 01:05:45;;;;;;;14.18;9.88;;;10.70;99.90;;;;;;5011236;28;20049;-71
2022/09/23 01:08:13;;;;;;;13.57;9.50;;;11.10;99.90;;;;;;5011878;28;20537;-73
2022/09/23 01:11:13;;;;;;;14.43;9.73;;;10.70;99.90;;;;;;5012501;28;20041;-72
2022/09/23 01:13:47;;;;;;;13.73;9.63;;;10.70;99.90;;;;;;5019179;28;20052;-72
2022/09/23 01:16:34;;;;;;;14.70;10.35;;;10.70;99.90;;;;;;5026879;28;20041;-72
2022/09/23 01:19:09;;;;;;;14.18;9.55;;;10.70;99.90;;;;;;5003738;28;20463;-71
2022/09/23 01:21:49;;;;;;;14.13;9.90;;;10.80;99.90;;;;;;5028030;28;20034;-72
2022/09/23 01:24:43;;;;;;;14.60;10.43;;;10.70;99.90;;;;;;5027242;28;20080;-71
2022/09/23 01:27:40;;;;;;;15.32;10.07;;;10.30;99.90;;;;;;5001050;28;20132;-73
2022/09/23 01:30:15;;;;;;;15.77;9.38;;;10.70;99.90;;;;;;5028578;28;20037;-73
2022/09/23 01:33:29;;;;;;;15.25;9.77;;;10.70;99.90;;;;;;5010978;28;20107;-73
2022/09/23 01:36:24;;;;;;;13.68;9.80;;;10.70;99.90;;;;;;4976155;28;20050;-72
2022/09/23 01:39:15;;;;;;;15.80;9.55;;;10.70;99.90;;;;;;5026100;28;20049;-72
2022/09/23 01:41:52;;;;;;;15.50;9.85;;;11.00;99.90;;;;;;5040417;28;20084;-71
2022/09/23 01:44:42;;;;;;;16.05;9.32;;;10.70;99.90;;;;;;5013148;28;20074;-72
2022/09/23 01:47:14;;;;;;;14.50;10.25;;;10.70;99.90;;;;;;5028105;28;20440;-73
2022/09/23 01:49:50;;;;;;;15.45;9.35;;;10.70;99.90;;;;;;5028385;28;20038;-71
2022/09/23 01:52:36;;;;;;;14.75;9.57;;;10.70;99.90;;;;;;5022644;28;20048;-72
2022/09/23 01:55:07;;;;;;;15.32;9.82;;;10.70;99.90;;;;;;5016999;28;20033;-73
2022/09/23 01:57:39;;;;;;;13.40;9.25;;;10.70;99.90;;;;;;5027935;28;20133;-72
2022/09/23 02:00:17;;;;;;;13.82;9.30;;;10.70;99.90;;;;;;5028242;28;20559;-72
2022/09/23 02:02:48;;;;;;;14.73;8.60;;;10.70;99.90;;;;;;5019939;28;20056;-71
2022/09/23 02:05:20;;;;;;;13.57;9.05;;;10.70;99.90;;;;;;5028106;28;20049;-72
2022/09/23 02:08:18;;;;;;;13.90;8.93;;;10.70;99.90;;;;;;5010118;28;20578;-72
2022/09/23 02:10:53;;;;;;;13.25;8.73;;;10.40;99.90;;;;;;5025744;28;20045;-71
2022/09/23 02:13:28;;;;;;;13.65;9.13;;;10.70;99.90;;;;;;5017677;28;20445;-73
2022/09/23 02:16:00;;;;;;;12.57;8.43;;;10.70;99.90;;;;;;5024589;28;20037;-73
2022/09/23 02:18:30;;;;;;;13.75;8.82;;;10.70;99.90;;;;;;5028005;28;20107;-72
2022/09/23 02:21:01;;;;;;;12.98;8.32;;;10.70;99.90;;;;;;5027950;28;20034;-72
2022/09/23 02:23:34;;;;;;;12.50;8.18;;;10.70;99.90;;;;;;5009067;28;20041;-73
2022/09/23 02:26:07;;;;;;;12.75;8.25;;;10.70;99.90;;;;;;5011476;28;20451;-73
2022/09/23 02:28:57;;;;;;;13.55;8.20;;;10.70;99.90;;;;;;5026479;28;20042;-72
2022/09/23 02:31:22;;;;;;;16.33;8.55;;;10.60;99.90;;;;;;5018037;28;20099;-72
2022/09/23 02:34:20;;;;;;;13.43;9.00;;;10.50;99.90;;;;;;5022290;28;20037;-72
2022/09/23 02:37:17;;;;;;;14.55;9.00;;;10.60;99.90;;;;;;5016953;28;20061;-71
2022/09/23 02:40:18;;;;;;;14.82;9.65;;;10.50;99.90;;;;;;5007346;28;20185;-72
2022/09/23 02:43:01;;;;;;;13.02;9.27;;;10.50;99.90;;;;;;5016377;28;20106;-73
2022/09/23 02:45:27;;;;;;;15.40;10.43;;;10.40;99.90;;;;;;5018447;28;20038;-73
2022/09/23 02:48:01;;;;;;;17.02;10.15;;;10.40;99.90;;;;;;5014569;28;20057;-73
2022/09/23 02:50:27;;;;;;;14.93;11.02;;;10.40;99.90;;;;;;5028490;28;20497;-72
2022/09/23 02:52:53;;;;;;;15.68;10.27;;;10.30;99.90;;;;;;5030906;28;20045;-73
2022/09/23 02:55:22;;;;;;;13.07;9.68;;;10.30;99.90;;;;;;5009738;28;20038;-72
2022/09/23 02:57:48;;;;;;;13.43;9.77;;;10.20;99.90;;;;;;5031008;28;20072;-73
2022/09/23 03:00:14;;;;;;;15.00;9.85;;;10.20;99.90;;;;;;5013450;28;20591;-72
2022/09/23 03:03:05;;;;;;;16.10;9.55;;;10.20;99.90;;;;;;5030807;28;20435;-71
2022/09/23 03:05:37;;;;;;;15.15;9.45;;;10.20;99.90;;;;;;5012780;28;20441;-72
2022/09/23 03:08:14;;;;;;;13.23;9.15;;;10.20;99.90;;;;;;5031911;28;20523;-72
2022/09/23 03:10:51;;;;;;;14.60;10.25;;;10.20;99.90;;;;;;5029226;28;20037;-72
2022/09/23 03:13:27;;;;;;;15.40;9.77;;;10.20;99.90;;;;;;5014582;28;20112;-72
2022/09/23 03:16:14;;;;;;;16.00;9.68;;;10.10;99.90;;;;;;5030670;28;20076;-73
2022/09/23 03:18:49;;;;;;;13.57;9.80;;;10.10;99.90;;;;;;5013437;28;20081;-73
2022/09/23 03:21:40;;;;;;;16.73;9.77;;;10.10;99.90;;;;;;5013004;28;20055;-72
2022/09/23 03:24:09;;;;;;;13.48;9.88;;;10.10;99.90;;;;;;5032490;28;20041;-71
2022/09/23 03:26:38;;;;;;;14.15;9.38;;;10.00;99.90;;;;;;5030295;28;20065;-72
2022/09/23 03:29:08;;;;;;;13.68;9.52;;;10.00;99.90;;;;;;5027079;28;20118;-72
2022/09/23 03:31:35;;;;;;;16.73;9.75;;;10.00;99.90;;;;;;5029261;28;20057;-72
2022/09/23 03:34:09;;;;;;;15.27;10.00;;;10.00;99.90;;;;;;5032262;28;20406;-71
2022/09/23 03:37:09;;;;;;;15.00;10.05;;;10.00;99.90;;;;;;5030399;28;20391;-71
2022/09/23 03:39:46;;;;;;;14.38;9.95;;;9.90;99.90;;;;;;5010121;28;20044;-72
2022/09/23 03:42:22;;;;;;;16.17;10.13;;;9.90;99.90;;;;;;5028581;28;20037;-73
2022/09/23 03:44:52;;;;;;;17.05;10.52;;;9.90;99.90;;;;;;5019149;28;20312;-73
2022/09/23 03:47:20;;;;;;;14.65;10.43;;;9.80;99.90;;;;;;5013687;28;20389;-73
2022/09/23 03:49:48;;;;;;;16.25;9.63;;;9.80;99.90;;;;;;5012920;28;20041;-73
2022/09/23 03:52:19;;;;;;;13.68;10.13;;;9.80;99.90;;;;;;5017214;28;20045;-73
2022/09/23 03:54:47;;;;;;;14.13;10.15;;;9.80;99.90;;;;;;5030025;28;20041;-74
2022/09/23 03:57:14;;;;;;;17.15;9.93;;;10.60;99.90;;;;;;5029693;28;20139;-73
2022/09/23 03:59:39;;;;;;;15.02;10.00;;;10.00;99.90;;;;;;5013495;28;20053;-71
2022/09/23 04:02:06;;;;;;;16.17;10.43;;;9.70;99.90;;;;;;5020400;28;20522;-73
2022/09/23 04:04:34;;;;;;;15.13;10.40;;;9.70;99.90;;;;;;5012455;28;20041;-73
2022/09/23 04:07:00;;;;;;;16.05;10.02;;;9.90;99.90;;;;;;5029727;28;20392;-72
2022/09/23 04:09:26;;;;;;;15.27;9.98;;;9.70;99.90;;;;;;5031568;28;20049;-72
2022/09/23 04:11:52;;;;;;;14.30;9.63;;;9.70;99.90;;;;;;5028565;28;20041;-72
2022/09/23 04:14:20;;;;;;;15.80;10.63;;;9.90;99.90;;;;;;5025622;28;20034;-72
2022/09/23 04:16:47;;;;;;;14.85;10.48;;;9.60;99.90;;;;;;5011972;28;20041;-71
2022/09/23 04:19:13;;;;;;;14.23;10.07;;;9.60;99.90;;;;;;5029374;28;20045;-71
2022/09/23 04:21:40;;;;;;;15.63;10.63;;;9.80;99.90;;;;;;5009886;28;20048;-71
2022/09/23 04:24:06;;;;;;;14.35;9.93;;;9.60;99.90;;;;;;5019210;28;20045;-73
2022/09/23 04:26:32;;;;;;;16.95;10.43;;;9.60;99.90;;;;;;5012423;28;20119;-73
2022/09/23 04:28:58;;;;;;;14.95;10.90;;;9.60;99.90;;;;;;5029995;28;20041;-72
2022/09/23 04:31:24;;;;;;;14.15;10.35;;;9.50;99.90;;;;;;5012762;28;20041;-72
2022/09/23 04:33:52;;;;;;;15.35;10.65;;;9.50;99.90;;;;;;5023822;28;20515;-73
2022/09/23 04:36:18;;;;;;;15.25;10.38;;;9.50;99.90;;;;;;5029346;28;20060;-72
2022/09/23 04:38:45;;;;;;;18.63;10.88;;;9.50;99.90;;;;;;5029540;28;20999;-73
2022/09/23 04:41:11;;;;;;;14.88;10.98;;;9.50;99.90;;;;;;5012315;28;20034;-71
2022/09/23 04:43:37;;;;;;;14.77;10.45;;;9.50;99.90;;;;;;5026049;28;20061;-71
2022/09/23 04:46:05;;;;;;;16.77;10.98;;;9.40;99.90;;;;;;5025356;28;20037;-72
2022/09/23 04:48:32;;;;;;;16.92;10.65;;;9.40;99.90;;;;;;5025855;28;20113;-72
2022/09/23 04:51:05;;;;;;;15.95;11.13;;;9.40;99.90;;;;;;5022666;28;20049;-73
2022/09/23 04:53:33;;;;;;;15.40;10.95;;;9.40;99.90;;;;;;5007772;28;20041;-71
2022/09/23 04:56:23;;;;;;;15.00;11.35;;;9.30;99.90;;;;;;5026579;28;20038;-74
2022/09/23 04:58:50;;;;;;;15.15;11.10;;;9.30;99.90;;;;;;5003151;28;20304;-73
2022/09/23 05:01:23;;;;;;;16.77;10.45;;;9.30;99.90;;;;;;5012164;28;20419;-72
2022/09/23 05:03:50;;;;;;;16.00;10.27;;;9.30;99.90;;;;;;5018320;28;20392;-72
2022/09/23 05:06:16;;;;;;;14.45;10.40;;;9.30;99.90;;;;;;5008651;28;20094;-72
2022/09/23 05:08:48;;;;;;;15.15;10.90;;;9.30;99.90;;;;;;5012454;28;20041;-74
2022/09/23 05:11:14;;;;;;;14.95;11.10;;;9.30;99.90;;;;;;5028562;28;20053;-74
2022/09/23 05:13:40;;;;;;;14.82;11.07;;;9.30;99.90;;;;;;5011421;28;20041;-71
2022/09/23 05:16:09;;;;;;;15.73;10.90;;;9.40;99.90;;;;;;5029850;28;20040;-72
2022/09/23 05:18:37;;;;;;;15.68;11.23;;;9.60;99.90;;;;;;5008969;28;20633;-73
2022/09/23 05:21:03;;;;;;;18.83;11.93;;;9.40;99.90;;;;;;5011834;28;20052;-73
2022/09/23 05:23:29;;;;;;;15.05;11.18;;;9.30;99.90;;;;;;5028877;28;20037;-73
2022/09/23 05:25:58;;;;;;;15.70;11.48;;;9.30;99.90;;;;;;5025873;28;20049;-74
2022/09/23 05:28:32;;;;;;;15.82;11.23;;;9.30;99.90;;;;;;5003568;28;20045;-75
2022/09/23 05:31:20;;;;;;;17.70;11.60;;;9.30;99.90;;;;;;5026612;28;20041;-72
2022/09/23 05:33:50;;;;;;;18.30;11.38;;;9.30;99.90;;;;;;5012082;28;20492;-73
2022/09/23 05:36:17;;;;;;;15.52;11.15;;;9.30;99.90;;;;;;5026049;28;20044;-72
2022/09/23 05:38:44;;;;;;;15.50;10.90;;;9.30;99.90;;;;;;5010526;28;20095;-73
2022/09/23 05:41:12;;;;;;;16.00;11.13;;;9.30;99.90;;;;;;5011391;28;20033;-72
2022/09/23 05:43:38;;;;;;;18.17;11.57;;;9.40;99.90;;;;;;5026607;28;20037;-73
2022/09/23 05:46:39;;;;;;;16.27;11.25;;;9.40;99.90;;;;;;5025010;28;20033;-73
2022/09/23 05:49:06;;;;;;;14.32;10.60;;;9.40;99.90;;;;;;4976877;28;20034;-73
2022/09/23 05:51:34;;;;;;;16.95;11.57;;;9.30;99.90;;;;;;5042437;28;20041;-73
2022/09/23 05:54:02;;;;;;;16.35;11.07;;;9.30;99.90;;;;;;5028490;28;20068;-72
2022/09/23 05:56:29;;;;;;;14.88;11.00;;;9.30;99.90;;;;;;5026158;28;20049;-73
2022/09/23 05:58:57;;;;;;;15.38;11.10;;;9.30;99.90;;;;;;5010671;28;20061;-73
2022/09/23 06:01:26;;;;;;;14.50;10.95;;;9.30;99.90;;;;;;5026282;28;20060;-73
2022/09/23 06:03:56;;;;;;;16.17;10.70;;;9.40;99.90;;;;;;5029710;28;20074;-73
2022/09/23 06:06:28;;;;;;;15.75;10.55;;;9.40;99.90;;;;;;5025612;28;20120;-72
2022/09/23 06:08:54;;;;;;;15.00;11.25;;;9.50;99.90;;;;;;5023949;28;20160;-73
2022/09/23 06:11:23;;;;;;;15.60;11.10;;;9.50;99.90;;;;;;5012897;28;20502;-73
2022/09/23 06:13:54;;;;;;;16.77;11.02;;;9.60;99.90;;;;;;5032304;28;20081;-73
2022/09/23 06:16:19;;;;;;;14.80;10.68;;;9.60;99.90;;;;;;5031913;28;20052;-72
2022/09/23 06:18:45;;;;;;;14.85;10.27;;;9.90;99.90;;;;;;5026256;28;20037;-72
2022/09/23 06:21:13;;;;;;;15.00;11.32;;;9.70;99.90;;;;;;5030740;28;20033;-72
2022/09/23 06:23:39;;;;;;;14.95;10.30;;;10.00;99.90;;;;;;5031854;28;20175;-72
2022/09/23 06:26:08;;;;;;;15.52;10.88;;;9.80;99.90;;;;;;5014820;28;20034;-73
2022/09/23 06:28:36;;;;;;;14.35;10.15;;;9.90;99.90;;;;;;5031335;28;20045;-73
2022/09/23 06:31:07;;;;;;;14.55;10.15;;;10.00;99.90;;;;;;5030943;28;20056;-73
2022/09/23 06:33:33;;;;;;;16.73;11.02;;;10.00;99.90;;;;;;5016030;28;20132;-72
2022/09/23 06:36:01;;;;;;;16.08;10.30;;;10.10;99.90;;;;;;5031626;28;20071;-72
2022/09/23 06:38:27;;;;;;;15.43;10.52;;;10.20;99.90;;;;;;5023767;28;20128;-72
2022/09/23 06:40:54;;;;;;;13.95;10.23;;;10.20;99.90;;;;;;5010938;28;20073;-73
2022/09/23 06:43:22;;;;;;;13.68;10.07;;;10.20;99.90;;;;;;5024926;28;20068;-72
2022/09/23 06:45:55;;;;;;;14.43;10.50;;;10.30;99.90;;;;;;5017765;28;20041;-74
2022/09/23 06:48:22;;;;;;;16.02;10.82;;;10.40;99.90;;;;;;5029976;28;20073;-71
2022/09/23 06:50:52;;;;;;;16.50;10.50;;;10.40;99.90;;;;;;5013900;28;20073;-72
2022/09/23 06:53:22;;;;;;;15.30;10.45;;;10.40;99.90;;;;;;5013714;28;20389;-73
2022/09/23 06:55:56;;;;;;;16.63;11.30;;;10.50;99.90;;;;;;5015036;28;20064;-73
2022/09/23 06:58:22;;;;;;;15.82;10.93;;;10.50;99.90;;;;;;5025734;28;20044;-72
2022/09/23 07:00:48;;;;;;;15.18;10.45;;;10.60;99.90;;;;;;5021880;28;20464;-73
2022/09/23 07:03:13;;;;;;;15.13;10.52;;;10.70;99.90;;;;;;5024935;28;20131;-72
2022/09/23 07:05:39;;;;;;;16.80;10.38;;;10.70;99.90;;;;;;5030350;28;20048;-72
2022/09/23 07:08:08;;;;;;;15.63;10.75;;;10.80;99.90;;;;;;5030756;28;20064;-72
2022/09/23 07:10:35;;;;;;;16.38;10.27;;;10.90;99.90;;;;;;5031227;28;20069;-71
2022/09/23 07:13:02;;;;;;;16.63;10.30;;;10.90;99.90;;;;;;5008939;28;20118;-73
2022/09/23 07:15:29;;;;;;;14.50;10.88;;;10.90;99.90;;;;;;5029706;28;20042;-71
2022/09/23 07:17:54;;;;;;;14.85;10.68;;;11.00;99.90;;;;;;5014151;28;20041;-71
2022/09/23 07:20:20;;;;;;;14.93;10.43;;;11.10;99.90;;;;;;5014111;28;20431;-72
2022/09/23 07:22:51;;;;;;;15.23;10.77;;;11.10;99.90;;;;;;4993200;28;20158;-73
2022/09/23 07:25:20;;;;;;;15.90;10.75;;;11.10;99.90;;;;;;5028576;28;20412;-73
2022/09/23 07:27:49;;;;;;;16.15;10.15;;;11.10;99.90;;;;;;5014548;28;20404;-74
2022/09/23 07:30:14;;;;;;;15.20;10.13;;;11.20;99.90;;;;;;5030493;28;20045;-72
2022/09/23 07:32:40;;;;;;;15.48;10.95;;;11.20;99.90;;;;;;5025965;28;20117;-72
2022/09/23 07:35:09;;;;;;;14.50;10.52;;;11.30;99.90;;;;;;5025961;28;20048;-73
2022/09/23 07:37:35;;;;;;;13.80;10.43;;;11.30;99.90;;;;;;5030249;28;20134;-72
2022/09/23 07:40:01;;;;;;;15.77;10.60;;;11.30;99.90;;;;;;5007678;28;20687;-73
2022/09/23 07:42:26;;;;;;;16.35;10.05;;;11.40;99.90;;;;;;5012071;28;20045;-72
2022/09/23 07:44:54;;;;;;;14.30;10.50;;;11.40;99.90;;;;;;5018418;28;20453;-72
2022/09/23 07:47:20;;;;;;;17.08;10.65;;;11.40;99.90;;;;;;5029973;28;20052;-71
2022/09/23 07:49:45;;;;;;;16.48;10.35;;;11.50;99.90;;;;;;5030413;28;20136;-73
2022/09/23 07:52:11;;;;;;;14.25;10.13;;;11.50;99.90;;;;;;5029861;28;20560;-72
2022/09/23 07:54:37;;;;;;;15.80;10.75;;;11.50;99.90;;;;;;4994635;28;20057;-71
2022/09/23 07:57:02;;;;;;;16.20;10.70;;;11.60;99.90;;;;;;5013292;28;20508;-72
2022/09/23 07:59:28;;;;;;;16.02;10.68;;;11.70;99.90;;;;;;5030024;28;20053;-72
2022/09/23 08:01:56;;;;;;;16.08;10.55;;;11.70;99.90;;;;;;5029846;28;20132;-71
2022/09/23 08:04:28;;;;;;;13.55;9.70;;;11.80;99.90;;;;;;5022099;28;20069;-71
2022/09/23 08:06:57;;;;;;;15.27;10.85;;;11.90;99.90;;;;;;5028337;28;20269;-71
2022/09/23 08:09:26;;;;;;;16.38;10.43;;;12.00;99.90;;;;;;5013405;28;20076;-73
2022/09/23 08:11:52;;;;;;;14.23;10.45;;;12.00;99.90;;;;;;5030847;28;20033;-72
2022/09/23 08:14:19;;;;;;;18.15;11.43;;;12.10;99.90;;;;;;5028803;28;20088;-73
2022/09/23 08:16:46;;;;;;;15.20;9.68;;;12.10;99.90;;;;;;5027448;28;20073;-73
2022/09/23 08:19:12;;;;;;;15.23;10.77;;;12.20;99.90;;;;;;4997365;28;20716;-72
2022/09/23 08:21:39;;;;;;;14.90;10.30;;;12.20;99.90;;;;;;5013419;28;20400;-72
2022/09/23 08:24:12;;;;;;;14.88;10.00;;;12.40;99.90;;;;;;5013252;28;20124;-71
2022/09/23 08:26:38;;;;;;;17.30;10.18;;;12.40;99.90;;;;;;5014847;28;20073;-72
2022/09/23 08:29:04;;;;;;;14.57;9.43;;;12.60;99.90;;;;;;5022872;28;20080;-73
2022/09/23 08:31:30;;;;;;;13.45;9.60;;;12.70;99.90;;;;;;5029160;28;20095;-73
2022/09/23 08:33:57;;;;;;;16.25;10.60;;;12.70;99.90;;;;;;5029165;28;20038;-73
2022/09/23 08:36:24;;;;;;;16.45;9.85;;;12.00;99.90;;;;;;5028286;28;20049;-73
2022/09/23 08:38:50;;;;;;;15.50;9.90;;;12.90;99.90;;;;;;5010616;28;20124;-73
2022/09/23 08:41:26;;;;;;;16.60;9.45;;;13.00;99.90;;;;;;5012685;28;20389;-71
2022/09/23 08:43:57;;;;;;;15.88;10.48;;;13.10;99.90;;;;;;5025763;28;20088;-72
2022/09/23 08:46:29;;;;;;;16.20;9.27;;;13.20;99.90;;;;;;5005956;28;20172;-72
2022/09/23 08:48:55;;;;;;;17.85;9.65;;;13.30;99.90;;;;;;5022926;28;20084;-73
2022/09/23 08:51:43;;;;;;;16.00;9.43;;;13.40;99.90;;;;;;5029302;28;20041;-73
2022/09/23 08:54:12;;;;;;;15.13;9.52;;;13.50;99.90;;;;;;5023069;28;20447;-73
2022/09/23 08:56:43;;;;;;;12.68;8.93;;;13.60;99.90;;;;;;5021586;28;20041;-72
2022/09/23 08:59:35;;;;;;;14.52;9.55;;;13.60;99.90;;;;;;5024512;28;20132;-73
2022/09/23 09:02:21;;;;;;;14.20;9.45;;;13.70;99.90;;;;;;5021496;28;20049;-76
2022/09/23 09:04:55;;;;;;;15.93;9.48;;;13.80;99.90;;;;;;5012293;28;20488;-73
2022/09/23 09:07:29;;;;;;;13.45;8.50;;;13.80;99.90;;;;;;5027750;28;20033;-72
2022/09/23 09:10:10;;;;;;;15.13;9.07;;;13.90;99.90;;;;;;5030418;28;20064;-72
2022/09/23 09:12:48;;;;;;;14.27;8.88;;;14.00;99.90;;;;;;5028574;28;20088;-72
2022/09/23 09:15:17;;;;;;;16.15;8.40;;;14.00;99.90;;;;;;5053268;28;20045;-72
2022/09/23 09:18:06;;;;;;;13.88;8.25;;;14.10;99.90;;;;;;5026790;28;20566;-72
2022/09/23 09:20:37;;;;;;;14.13;8.48;;;14.20;99.90;;;;;;5024347;28;20080;-72
2022/09/23 09:23:14;;;;;;;13.77;7.78;;;15.30;99.90;;;;;;5027541;28;20103;-72
2022/09/23 09:25:54;;;;;;;13.55;8.23;;;14.30;99.90;;;;;;5024646;28;20042;-72
2022/09/23 09:28:36;;;;;;;13.52;7.57;;;14.40;99.90;;;;;;5026409;28;20046;-75
2022/09/23 09:31:14;;;;;;;12.48;7.47;;;14.40;99.90;;;;;;5028849;28;20400;-72
2022/09/23 09:34:15;;;;;;;14.57;7.88;;;14.40;99.90;;;;;;5022283;28;20046;-73
2022/09/23 09:36:45;;;;;;;14.18;8.13;;;14.40;99.90;;;;;;5007958;28;20060;-73
2022/09/23 09:39:13;;;;;;;13.10;7.60;;;14.50;99.90;;;;;;5029980;28;20084;-73
2022/09/23 09:41:46;;;;;;;14.02;8.50;;;14.60;99.90;;;;;;5022933;28;20034;-73
2022/09/23 09:44:25;;;;;;;13.27;7.68;;;14.60;99.90;;;;;;5020996;28;20106;-74
2022/09/23 09:47:06;;;;;;;13.32;7.93;;;14.60;99.90;;;;;;5027018;28;20053;-72
2022/09/23 09:49:57;;;;;;;12.05;7.15;;;14.60;99.90;;;;;;5020445;28;20037;-73
2022/09/23 09:52:28;;;;;;;11.40;7.07;;;14.70;99.90;;;;;;5023360;28;20060;-71
2022/09/23 09:55:14;;;;;;;12.43;7.18;;;14.70;99.90;;;;;;5019702;28;20116;-73
2022/09/23 09:57:48;;;;;;;13.52;6.93;;;14.70;99.90;;;;;;5028683;28;20041;-73
2022/09/23 10:00:25;;;;;;;12.60;7.65;;;14.70;99.90;;;;;;5029415;28;20072;-73
2022/09/23 10:03:12;;;;;;;11.65;7.25;;;14.80;99.90;;;;;;5027980;28;20037;-72
2022/09/23 10:05:44;;;;;;;13.98;6.88;;;14.80;99.90;;;;;;4981448;28;20044;-72
2022/09/23 10:08:25;;;;;;;12.48;6.82;;;14.80;99.90;;;;;;5020351;28;20046;-72
2022/09/23 10:11:03;;;;;;;11.57;6.72;;;16.00;99.90;;;;;;5029394;28;20151;-73
2022/09/23 10:13:30;;;;;;;14.45;7.45;;;14.90;99.90;;;;;;5028312;28;20046;-72
2022/09/23 10:15:57;;;;;;;14.45;6.75;;;14.90;99.90;;;;;;5027318;28;20140;-72
2022/09/23 10:18:37;;;;;;;12.10;6.85;;;14.90;99.90;;;;;;5017652;28;20142;-72
2022/09/23 10:21:13;;;;;;;11.13;6.70;;;14.90;99.90;;;;;;5017043;28;20615;-74
2022/09/23 10:23:42;;;;;;;12.85;6.60;;;15.00;99.90;;;;;;5029405;28;20037;-73
2022/09/23 10:26:11;;;;;;;12.68;7.10;;;15.00;99.90;;;;;;5029431;28;20447;-73
2022/09/23 10:28:54;;;;;;;13.98;7.57;;;15.00;99.90;;;;;;4996321;28;20045;-74
2022/09/23 10:31:34;;;;;;;13.02;7.07;;;15.10;99.90;;;;;;5010995;28;20071;-73
2022/09/23 10:34:03;;;;;;;12.30;7.28;;;15.10;99.90;;;;;;5029301;28;20037;-73
2022/09/23 10:36:37;;;;;;;12.73;6.97;;;15.20;99.90;;;;;;5027807;28;20113;-73
2022/09/23 10:48:35;;;;;;;12.20;6.68;;;15.20;99.90;;;;;;5020083;28;20121;-72
2022/09/23 10:51:13;;;;;;;11.50;6.13;;;15.20;99.90;;;;;;5022539;28;20212;-73
2022/09/23 10:54:11;;;;;;;11.35;6.00;;;15.30;99.90;;;;;;5017795;28;20037;-72
2022/09/23 10:56:45;;;;;;;11.73;6.53;;;15.30;99.90;;;;;;5014462;28;20049;-73
2022/09/23 10:59:28;;;;;;;11.00;5.85;;;15.40;99.90;;;;;;5013693;28;20057;-73
2022/09/23 11:02:21;;;;;;;11.00;6.80;;;15.40;99.90;;;;;;5014360;28;20492;-72
2022/09/23 11:05:10;;;;;;;12.13;6.95;;;15.50;99.90;;;;;;5029177;28;20502;-73
2022/09/23 11:07:44;;;;;;;12.82;6.85;;;15.50;99.90;;;;;;5032322;28;20364;-71
2022/09/23 11:10:50;;;;;;;14.05;6.72;;;15.60;99.90;;;;;;5013608;28;20176;-71
2022/09/23 11:13:40;;;;;;;12.05;6.75;;;15.60;99.90;;;;;;5032011;28;20045;-71
2022/09/23 11:16:37;;;;;;;11.25;6.47;;;15.70;99.90;;;;;;5022541;28;20049;-73
2022/09/23 11:19:35;;;;;;;11.30;6.55;;;15.70;99.90;;;;;;5017033;28;20087;-72
2022/09/23 11:22:16;;;;;;;13.00;6.55;;;15.80;99.90;;;;;;4984073;28;20050;-73
2022/09/23 11:24:56;;;;;;;10.98;6.60;;;15.80;99.90;;;;;;5031274;28;20095;-73
2022/09/23 11:27:43;;;;;;;17.95;7.70;;;15.90;99.90;;;;;;5031666;28;20531;-72
2022/09/23 11:30:15;;;;;;;12.85;6.93;;;16.00;99.90;;;;;;5014970;28;20049;-71
2022/09/23 11:32:53;;;;;;;13.05;7.20;;;16.00;99.90;;;;;;5018926;28;20038;-72
2022/09/23 11:35:24;;;;;;;12.52;6.70;;;16.00;99.90;;;;;;5005902;28;20069;-72
2022/09/23 11:38:06;;;;;;;13.98;7.18;;;16.10;99.90;;;;;;5030167;28;20103;-72
2022/09/23 11:40:35;;;;;;;13.50;7.72;;;16.00;99.90;;;;;;5028792;28;20120;-72
2022/09/23 11:43:18;;;;;;;14.32;7.03;;;16.10;99.90;;;;;;5030416;28;20176;-72
2022/09/23 11:46:22;;;;;;;12.95;7.05;;;16.10;99.90;;;;;;5022975;28;20476;-72
2022/09/23 11:48:57;;;;;;;12.85;7.28;;;16.10;99.90;;;;;;5004040;28;20492;-72
2022/09/23 11:51:30;;;;;;;13.60;7.32;;;16.10;99.90;;;;;;5029408;28;20480;-72
2022/09/23 11:53:58;;;;;;;;;;;16.10;99.90;;;;;;5027232;28;20038;-73
2022/09/23 11:56:35;;;;;;;13.55;6.78;;;16.10;99.90;;;;;;5060154;28;19917;-73
2022/09/23 11:59:29;;;;;;;13.52;7.20;;;16.10;99.90;;;;;;5022699;28;20081;-72
2022/09/23 12:02:02;;;;;;;12.00;7.15;;;16.10;99.90;;;;;;5013200;28;20176;-72
2022/09/23 12:04:36;;;;;;;14.32;7.07;;;16.10;99.90;;;;;;5030298;28;20037;-73
2022/09/23 12:07:07;;;;;;;13.10;6.53;;;16.10;99.90;;;;;;5010594;28;20309;-72
2022/09/23 12:09:59;;;;;;;12.27;7.25;;;16.10;99.90;;;;;;5028362;28;20038;-73
2022/09/23 12:12:38;;;;;;;16.20;7.00;;;16.10;99.90;;;;;;5029814;28;20052;-73
2022/09/23 12:15:11;;;;;;;11.77;6.78;;;16.10;99.90;;;;;;5013879;28;20430;-73
2022/09/23 12:17:55;;;;;;;13.52;7.15;;;16.10;99.90;;;;;;5030436;28;20041;-71
2022/09/23 12:20:53;;;;;;;12.43;6.60;;;16.10;99.90;;;;;;5009123;28;20045;-71
2022/09/23 12:23:49;;;;;;;12.70;7.30;;;16.10;99.90;;;;;;5017410;28;20053;-71
2022/09/23 12:26:21;;;;;;;13.32;7.43;;;16.10;99.90;;;;;;5012979;28;20049;-73
2022/09/23 12:28:50;;;;;;;13.50;7.75;;;16.10;99.90;;;;;;5013311;28;20046;-71
2022/09/23 12:31:29;;;;;;;14.18;8.48;;;16.10;99.90;;;;;;5025889;28;20103;-72
2022/09/23 12:33:59;;;;;;;14.90;7.80;;;16.10;99.90;;;;;;5030827;28;20045;-73
2022/09/23 12:36:33;;;;;;;12.20;7.10;;;16.10;99.90;;;;;;5029168;28;20445;-72
2022/09/23 12:39:06;;;;;;;15.02;7.88;;;16.20;99.90;;;;;;5030586;28;20183;-73
2022/09/23 12:41:35;;;;;;;;;;;16.20;99.90;;;;;;5011124;28;20037;-73
2022/09/23 12:44:13;;;;;;;13.15;8.05;;;16.30;99.90;;;;;;5040978;28;19917;-73
2022/09/23 12:46:41;;;;;;;16.55;7.90;;;16.30;99.90;;;;;;5027565;28;20561;-72
2022/09/23 12:49:27;;;;;;;13.75;8.38;;;16.40;99.90;;;;;;5029519;28;20033;-73
2022/09/23 12:52:17;;;;;;;14.25;7.88;;;16.40;99.90;;;;;;5016932;28;20042;-72
2022/09/23 12:54:50;;;;;;;13.85;7.82;;;16.50;99.90;;;;;;5012902;28;20518;-72
2022/09/23 12:57:34;;;;;;;13.80;7.97;;;16.50;99.90;;;;;;5009007;28;20041;-73
2022/09/23 13:00:15;;;;;;;14.88;7.85;;;16.60;99.90;;;;;;5029068;28;20180;-72
2022/09/23 13:02:46;;;;;;;14.35;8.30;;;16.70;99.90;;;;;;5028452;28;20033;-72
2022/09/23 13:08:19;;;;;;;14.50;8.10;;;16.80;99.90;;;;;;5020036;28;20065;-73
2022/09/23 13:10:55;;;;;;;14.05;7.85;;;16.80;99.90;;;;;;5030434;28;20073;-72
2022/09/23 13:13:30;;;;;;;16.20;8.15;;;16.80;99.90;;;;;;5011630;28;20045;-73
2022/09/23 13:16:09;;;;;;;13.75;7.35;;;16.80;99.90;;;;;;5024779;28;20128;-73
2022/09/23 13:18:52;;;;;;;14.15;8.10;;;16.80;99.90;;;;;;5025247;28;20582;-72
2022/09/23 13:21:41;;;;;;;13.45;7.72;;;16.80;99.90;;;;;;5017346;28;20079;-72